Legend Of The Seas — C6SL5 — position and weather

sailwx.info

Track history (hours):
 
Tides and Currents Weather Stations Pressure Air Temp Water Temp Dewpoint Dewpoint Depression Visibility Wind Speed Wind Dir Waves Ship Positions

Legend Of The Seas

Operator: Royal Caribbean Cruises Ltd

Last reported at 2018-Apr-25 01:32 UTC. Time now 2018-Apr-25 02:39 UTC.
Position N 36°31' W 010°38'.

Type: Passenger vessel. MMSI: 311378000.

Date/timePositionNaut miles runAvg speedWind from/ knotsBaromVisibWave heightAir tempDewpointWater temp
2018-Apr-25 01:32N 36°31' W 010°38'118.8
2018-Apr-25 01:30N 36°31' W 010°39'919.1
2018-Apr-25 01:00N 36°32' W 010°50'1019.3
2018-Apr-25 00:30N 36°33' W 011°02'1319.1
2018-Apr-24 23:49N 36°35' W 011°18'719.2
2018-Apr-24 23:27N 36°36' W 011°27'919.3
2018-Apr-24 23:00N 36°37' W 011°38'1019.3
2018-Apr-24 22:31N 36°37' W 011°50'1020.2
2018-Apr-24 22:00N 36°37' W 012°03'1020.9
2018-Apr-24 21:31N 36°38' W 012°15'1121.0
2018-Apr-24 21:00N 36°39' W 012°29'1121.1
2018-Apr-24 20:29N 36°40' W 012°42'46621.5
2018-Apr-23 22:47N 37°25' W 022°23'5421.8
2018-Apr-23 20:18N 37°31' W 023°31'621.4
2018-Apr-23 20:00N 37°32' W 023°39'1121.6
2018-Apr-23 19:30N 37°33' W 023°53'1121.5
2018-Apr-23 19:00N 37°34' W 024°06'1121.4
2018-Apr-23 18:30N 37°35' W 024°19'1121.4
2018-Apr-23 18:00N 37°36' W 024°33'1121.6
2018-Apr-23 17:30N 37°37' W 024°46'1121.6
2018-Apr-23 17:00N 37°38' W 024°60'1121.3
2018-Apr-23 16:30N 37°39' W 025°13'1121.5
2018-Apr-23 16:00N 37°40' W 025°27'918.1
2018-Apr-23 15:30N 37°43' W 025°37'2 4.0
2018-Apr-23 14:59N 37°44' W 025°40'0 0.0
2018-Apr-23 14:23N 37°44' W 025°40'0 0.0
2018-Apr-23 13:59N 37°44' W 025°40'0 0.0
2018-Apr-23 13:29N 37°44' W 025°40'0 0.0
2018-Apr-23 12:58N 37°44' W 025°40'0 0.0
2018-Apr-23 12:30N 37°44' W 025°40'0 0.0
2018-Apr-23 12:00N 37°44' W 025°40'0 0.0
2018-Apr-23 11:30N 37°44' W 025°40'0 0.0
2018-Apr-23 11:00N 37°44' W 025°40'0 0.0
2018-Apr-23 10:29N 37°44' W 025°40'0 0.0
2018-Apr-23 09:59N 37°44' W 025°40'0 0.0
2018-Apr-23 09:28N 37°44' W 025°40'0 0.0
2018-Apr-23 09:00N 37°44' W 025°40'0 0.0
2018-Apr-23 08:30N 37°44' W 025°40'0 0.0
2018-Apr-23 08:00N 37°44' W 025°40'0 0.0
2018-Apr-23 07:30N 37°44' W 025°40'1 1.4
2018-Apr-23 07:00N 37°44' W 025°39'4 7.2
2018-Apr-23 06:30N 37°41' W 025°41'612.4
2018-Apr-23 06:00N 37°42' W 025°48'612.6
2018-Apr-23 05:30N 37°43' W 025°56'612.7
2018-Apr-23 05:00N 37°45' W 026°03'1212.3
2018-Apr-23 04:01N 37°50' W 026°18'013.8
2018-Apr-23 04:00N 37°50' W 026°18'5912.5
2018-Apr-22 23:14N 38°15' W 027°27'311.7
2018-Apr-22 23:01N 38°16' W 027°30'612.0
2018-Apr-22 22:30N 38°19' W 027°37'611.8
2018-Apr-22 22:00N 38°21' W 027°43'611.8
2018-Apr-22 21:31N 38°23' W 027°50'612.1
2018-Apr-22 21:00N 38°26' W 027°57'1212.4
2018-Apr-22 20:03N 38°31' W 028°11'112.6
2018-Apr-22 20:00N 38°31' W 028°12'612.2
2018-Apr-22 19:30N 38°34' W 028°19'611.6
2018-Apr-22 19:00N 38°36' W 028°26'611.1
2018-Apr-22 18:27N 38°33' W 028°33'3 0.8
2018-Apr-22 14:22N 38°32' W 028°37'0 0.0
2018-Apr-22 13:51N 38°32' W 028°37'0 0.0
2018-Apr-22 13:28N 38°32' W 028°37'0 0.1
2018-Apr-22 12:57N 38°32' W 028°37'0 0.0
2018-Apr-22 12:28N 38°32' W 028°37'0 0.0
2018-Apr-22 10:42N 38°32' W 028°37'0 0.1
2018-Apr-22 10:29N 38°32' W 028°37'0 0.1
2018-Apr-22 09:58N 38°32' W 028°37'0 0.1
2018-Apr-22 09:21N 38°32' W 028°37'0 0.1
2018-Apr-22 08:49N 38°32' W 028°37'1 1.5
2018-Apr-22 08:30N 38°31' W 028°36'5 9.9
2018-Apr-22 08:00N 38°28' W 028°41'815.0
2018-Apr-22 07:30N 38°27' W 028°50'714.9
2018-Apr-22 07:00N 38°25' W 028°60'815.3
2018-Apr-22 06:30N 38°23' W 029°09'815.3
2018-Apr-22 06:00N 38°22' W 029°19'715.0
2018-Apr-22 05:30N 38°20' W 029°28'816.1
2018-Apr-22 05:00N 38°17' W 029°38'816.0
2018-Apr-22 04:30N 38°15' W 029°48'816.0
2018-Apr-22 04:00N 38°13' W 029°57'1016.0
2018-Apr-22 03:22N 38°11' W 030°10'616.0
2018-Apr-22 03:00N 38°09' W 030°17'916.0
2018-Apr-22 02:28N 38°07' W 030°28'816.0
2018-Apr-22 01:58N 38°05' W 030°38'1115.7
2018-Apr-22 01:15N 38°02' W 030°52'416.1
2018-Apr-22 00:59N 38°01' W 030°57'916.0
2018-Apr-22 00:25N 37°59' W 031°08'816.4
2018-Apr-21 23:56N 37°57' W 031°17'816.1
2018-Apr-21 23:26N 37°55' W 031°28'716.4
2018-Apr-21 22:59N 37°53' W 031°37'  
Track history (hours):
 
Tides and Currents Weather Stations Pressure Air Temp Water Temp Dewpoint Dewpoint Depression Visibility Wind Speed Wind Dir Waves Ship Positions

Legend Of The Seas

Operator: Royal Caribbean Cruises Ltd

Last reported at 2018-Apr-25 01:32 UTC. Time now 2018-Apr-25 02:39 UTC.
Position N 36°31' W 010°38'.

Type: Passenger vessel. MMSI: 311378000.

Date/timePositionNaut miles runAvg speedWind from/ knotsBaromVisibWave heightAir tempDewpointWater temp
2018-Apr-25 01:32N 36°31' W 010°38'118.8
2018-Apr-25 01:30N 36°31' W 010°39'919.1
2018-Apr-25 01:00N 36°32' W 010°50'1019.3
2018-Apr-25 00:30N 36°33' W 011°02'1319.1
2018-Apr-24 23:49N 36°35' W 011°18'719.2
2018-Apr-24 23:27N 36°36' W 011°27'919.3
2018-Apr-24 23:00N 36°37' W 011°38'1019.3
2018-Apr-24 22:31N 36°37' W 011°50'1020.2
2018-Apr-24 22:00N 36°37' W 012°03'1020.9
2018-Apr-24 21:31N 36°38' W 012°15'1121.0
2018-Apr-24 21:00N 36°39' W 012°29'1121.1
2018-Apr-24 20:29N 36°40' W 012°42'46621.5
2018-Apr-23 22:47N 37°25' W 022°23'5421.8
2018-Apr-23 20:18N 37°31' W 023°31'621.4
2018-Apr-23 20:00N 37°32' W 023°39'1121.6
2018-Apr-23 19:30N 37°33' W 023°53'1121.5
2018-Apr-23 19:00N 37°34' W 024°06'1121.4
2018-Apr-23 18:30N 37°35' W 024°19'1121.4
2018-Apr-23 18:00N 37°36' W 024°33'1121.6
2018-Apr-23 17:30N 37°37' W 024°46'1121.6
2018-Apr-23 17:00N 37°38' W 024°60'1121.3
2018-Apr-23 16:30N 37°39' W 025°13'1121.5
2018-Apr-23 16:00N 37°40' W 025°27'918.1
2018-Apr-23 15:30N 37°43' W 025°37'2 4.0
2018-Apr-23 14:59N 37°44' W 025°40'0 0.0
2018-Apr-23 14:23N 37°44' W 025°40'0 0.0
2018-Apr-23 13:59N 37°44' W 025°40'0 0.0
2018-Apr-23 13:29N 37°44' W 025°40'0 0.0
2018-Apr-23 12:58N 37°44' W 025°40'0 0.0
2018-Apr-23 12:30N 37°44' W 025°40'0 0.0
2018-Apr-23 12:00N 37°44' W 025°40'0 0.0
2018-Apr-23 11:30N 37°44' W 025°40'0 0.0
2018-Apr-23 11:00N 37°44' W 025°40'0 0.0
2018-Apr-23 10:29N 37°44' W 025°40'0 0.0
2018-Apr-23 09:59N 37°44' W 025°40'0 0.0
2018-Apr-23 09:28N 37°44' W 025°40'0 0.0
2018-Apr-23 09:00N 37°44' W 025°40'0 0.0
2018-Apr-23 08:30N 37°44' W 025°40'0 0.0
2018-Apr-23 08:00N 37°44' W 025°40'0 0.0
2018-Apr-23 07:30N 37°44' W 025°40'1 1.4
2018-Apr-23 07:00N 37°44' W 025°39'4 7.2
2018-Apr-23 06:30N 37°41' W 025°41'612.4
2018-Apr-23 06:00N 37°42' W 025°48'612.6
2018-Apr-23 05:30N 37°43' W 025°56'612.7
2018-Apr-23 05:00N 37°45' W 026°03'1212.3
2018-Apr-23 04:01N 37°50' W 026°18'013.8
2018-Apr-23 04:00N 37°50' W 026°18'5912.5
2018-Apr-22 23:14N 38°15' W 027°27'311.7
2018-Apr-22 23:01N 38°16' W 027°30'612.0
2018-Apr-22 22:30N 38°19' W 027°37'611.8
2018-Apr-22 22:00N 38°21' W 027°43'611.8
2018-Apr-22 21:31N 38°23' W 027°50'612.1
2018-Apr-22 21:00N 38°26' W 027°57'1212.4
2018-Apr-22 20:03N 38°31' W 028°11'112.6
2018-Apr-22 20:00N 38°31' W 028°12'612.2
2018-Apr-22 19:30N 38°34' W 028°19'611.6
2018-Apr-22 19:00N 38°36' W 028°26'611.1
2018-Apr-22 18:27N 38°33' W 028°33'3 0.8
2018-Apr-22 14:22N 38°32' W 028°37'0 0.0
2018-Apr-22 13:51N 38°32' W 028°37'0 0.0
2018-Apr-22 13:28N 38°32' W 028°37'0 0.1
2018-Apr-22 12:57N 38°32' W 028°37'0 0.0
2018-Apr-22 12:28N 38°32' W 028°37'0 0.0
2018-Apr-22 10:42N 38°32' W 028°37'0 0.1
2018-Apr-22 10:29N 38°32' W 028°37'0 0.1
2018-Apr-22 09:58N 38°32' W 028°37'0 0.1
2018-Apr-22 09:21N 38°32' W 028°37'0 0.1
2018-Apr-22 08:49N 38°32' W 028°37'1 1.5
2018-Apr-22 08:30N 38°31' W 028°36'5 9.9
2018-Apr-22 08:00N 38°28' W 028°41'815.0
2018-Apr-22 07:30N 38°27' W 028°50'714.9
2018-Apr-22 07:00N 38°25' W 028°60'815.3
2018-Apr-22 06:30N 38°23' W 029°09'815.3
2018-Apr-22 06:00N 38°22' W 029°19'715.0
2018-Apr-22 05:30N 38°20' W 029°28'816.1
2018-Apr-22 05:00N 38°17' W 029°38'816.0
2018-Apr-22 04:30N 38°15' W 029°48'816.0
2018-Apr-22 04:00N 38°13' W 029°57'1016.0
2018-Apr-22 03:22N 38°11' W 030°10'616.0
2018-Apr-22 03:00N 38°09' W 030°17'916.0
2018-Apr-22 02:28N 38°07' W 030°28'816.0
2018-Apr-22 01:58N 38°05' W 030°38'1115.7
2018-Apr-22 01:15N 38°02' W 030°52'416.1
2018-Apr-22 00:59N 38°01' W 030°57'916.0
2018-Apr-22 00:25N 37°59' W 031°08'816.4
2018-Apr-21 23:56N 37°57' W 031°17'816.1
2018-Apr-21 23:26N 37°55' W 031°28'716.4
2018-Apr-21 22:59N 37°53' W 031°37'  

Dump ship's entire track history